createdAt,value
2023-04-09T00:00:26.138Z,101351.40
2023-04-09T00:05:49.336Z,101347.79
2023-04-09T00:10:53.399Z,101347.88
2023-04-09T00:15:56.493Z,101347.81
2023-04-09T00:20:59.492Z,101343.27
2023-04-09T00:26:02.389Z,101342.10
2023-04-09T00:31:05.697Z,101343.63
2023-04-09T00:36:08.659Z,101337.85
2023-04-09T00:41:11.720Z,101329.78
2023-04-09T00:46:14.824Z,101328.26
2023-04-09T00:51:18.006Z,101328.41
2023-04-09T00:56:21.616Z,101329.34
2023-04-09T01:01:24.586Z,101334.94
2023-04-09T01:06:52.219Z,101339.14
2023-04-09T01:12:36.994Z,101343.46
2023-04-09T01:17:48.619Z,101346.92
2023-04-09T01:23:19.042Z,101350.58
2023-04-09T01:28:36.993Z,101347.52
2023-04-09T01:33:41.087Z,101350.45
2023-04-09T01:38:44.158Z,101354.85
2023-04-09T01:43:48.248Z,101350.77
2023-04-09T01:48:51.361Z,101357.39
2023-04-09T01:53:54.612Z,101365.48
2023-04-09T01:58:57.418Z,101372.66
2023-04-09T02:04:05.318Z,101371.80
2023-04-09T02:09:09.430Z,101373.38
2023-04-09T02:14:12.240Z,101370.91
2023-04-09T02:19:15.720Z,101375.34
2023-04-09T02:24:18.623Z,101369.86
2023-04-09T02:29:21.631Z,101362.96
2023-04-09T02:34:24.688Z,101354.96
2023-04-09T02:39:27.640Z,101358.25
2023-04-09T02:44:30.722Z,101362.63
2023-04-09T02:49:33.608Z,101360.32
2023-04-09T02:54:36.509Z,101362.05
2023-04-09T02:59:40.746Z,101360.21
2023-04-09T03:04:43.581Z,101363.02
2023-04-09T03:09:46.437Z,101356.18
2023-04-09T03:14:49.263Z,101348.23
2023-04-09T03:19:52.492Z,101341.23
2023-04-09T03:24:56.253Z,101333.86
2023-04-09T03:29:59.208Z,101331.30
2023-04-09T03:35:02.271Z,101340.48
2023-04-09T03:40:06.537Z,101349.52
2023-04-09T03:45:09.799Z,101356.02
2023-04-09T03:50:12.718Z,101352.23
2023-04-09T03:55:15.572Z,101348.70
2023-04-09T04:00:18.540Z,101343.14
2023-04-09T04:05:25.521Z,101345.34
2023-04-09T04:10:28.664Z,101349.12
2023-04-09T04:15:31.720Z,101349.28
2023-04-09T04:20:35.116Z,101361.91
2023-04-09T04:25:42.019Z,101364.36
2023-04-09T04:30:45.063Z,101366.81
2023-04-09T04:35:47.952Z,101371.52
2023-04-09T04:40:50.852Z,101372.83
2023-04-09T04:45:54.166Z,101378.33
2023-04-09T04:51:01.397Z,101383.42
2023-04-09T04:56:05.345Z,101384.56
2023-04-09T05:01:08.409Z,101388.57
2023-04-09T05:06:12.092Z,101387.30
2023-04-09T05:11:17.010Z,101390.35
2023-04-09T05:16:20.876Z,101397.45
2023-04-09T05:21:23.715Z,101393.16
2023-04-09T05:26:27.166Z,101397.55
2023-04-09T05:31:30.033Z,101392.88
2023-04-09T05:36:32.904Z,101385.01
2023-04-09T05:41:37.517Z,101385.65
2023-04-09T05:46:40.594Z,101385.64
2023-04-09T05:51:43.458Z,101386.25
2023-04-09T05:56:46.308Z,101384.45
2023-04-09T06:01:49.313Z,101390.43
2023-04-09T06:06:52.311Z,101394.88
2023-04-09T06:11:56.520Z,101394.17
2023-04-09T06:17:00.080Z,101393.31
2023-04-09T06:22:03.015Z,101397.18
2023-04-09T06:27:06.100Z,101401.19
2023-04-09T06:32:08.996Z,101398.81
2023-04-09T06:37:11.872Z,101407.34
2023-04-09T06:42:14.846Z,101413.98
2023-04-09T06:47:17.851Z,101416.22
2023-04-09T06:52:20.787Z,101413.27
2023-04-09T06:57:23.855Z,101413.47
2023-04-09T07:02:27.756Z,101420.61
2023-04-09T07:07:31.771Z,101424.33
2023-04-09T07:12:35.723Z,101430.00
2023-04-09T07:17:38.729Z,101438.48
2023-04-09T07:22:43.372Z,101437.29
2023-04-09T07:27:46.315Z,101439.48
2023-04-09T07:32:49.272Z,101438.78
2023-04-09T07:37:52.303Z,101435.41
2023-04-09T07:42:56.020Z,101436.86
2023-04-09T07:47:59.067Z,101441.24
2023-04-09T07:53:02.116Z,101441.52
2023-04-09T07:58:06.068Z,101438.84
2023-04-09T08:03:10.091Z,101432.79
2023-04-09T08:08:13.357Z,101434.36
2023-04-09T08:13:17.016Z,101435.19
2023-04-09T08:18:19.901Z,101429.85
2023-04-09T08:23:22.731Z,101431.66
2023-04-09T08:28:25.698Z,101429.58
2023-04-09T08:33:28.574Z,101433.85
2023-04-09T08:38:31.946Z,101431.02
2023-04-09T08:43:56.487Z,101428.90
2023-04-09T08:48:57.971Z,101433.88
2023-04-09T08:54:04.368Z,101435.71
2023-04-09T08:59:09.584Z,101438.31
2023-04-09T09:04:12.665Z,101441.13
2023-04-09T09:09:16.697Z,101441.67
2023-04-09T09:14:19.874Z,101442.02
2023-04-09T09:19:25.758Z,101444.85
2023-04-09T09:24:29.049Z,101451.47
2023-04-09T09:29:31.994Z,101443.77
2023-04-09T09:34:34.824Z,101443.52
2023-04-09T09:39:46.661Z,101444.05
2023-04-09T09:44:50.638Z,101443.55
2023-04-09T09:49:54.650Z,101438.81
2023-04-09T09:54:58.942Z,101435.35
2023-04-09T10:00:03.896Z,101433.27
2023-04-09T10:05:07.711Z,101427.98
2023-04-09T10:10:10.696Z,101431.33
2023-04-09T10:15:13.649Z,101430.48
2023-04-09T10:21:10.139Z,101425.77
2023-04-09T10:26:12.946Z,101427.34
2023-04-09T10:31:16.035Z,101423.67
2023-04-09T10:36:19.072Z,101430.09
2023-04-09T10:41:23.634Z,101432.66
2023-04-09T10:46:36.866Z,101427.73
2023-04-09T10:51:40.435Z,101426.95
2023-04-09T10:57:24.617Z,101423.13
2023-04-09T11:02:45.733Z,101424.30
2023-04-09T11:08:08.207Z,101417.98
2023-04-09T11:13:15.832Z,101414.62
2023-04-09T11:18:26.686Z,101407.92
2023-04-09T11:23:29.792Z,101405.32
2023-04-09T11:28:34.750Z,101402.77
2023-04-09T11:33:37.684Z,101404.67
2023-04-09T11:38:40.497Z,101404.05
2023-04-09T11:43:43.455Z,101403.73
2023-04-09T11:48:46.852Z,101402.71
2023-04-09T11:53:49.866Z,101406.77
2023-04-09T11:58:52.790Z,101403.12
2023-04-09T12:03:56.324Z,101402.34
2023-04-09T12:08:59.628Z,101403.61
2023-04-09T12:14:03.063Z,101395.91
2023-04-09T12:19:09.828Z,101395.83
2023-04-09T12:24:13.049Z,101393.09
2023-04-09T12:29:20.690Z,101391.66
2023-04-09T12:34:23.493Z,101392.29
2023-04-09T12:39:26.453Z,101392.60
2023-04-09T12:44:29.305Z,101394.58
2023-04-09T12:49:33.155Z,101393.27
2023-04-09T12:54:36.237Z,101390.89
2023-04-09T12:59:39.080Z,101389.84
2023-04-09T13:04:42.785Z,101385.47
2023-04-09T13:09:46.131Z,101386.16
2023-04-09T13:14:49.838Z,101384.88
2023-04-09T13:19:52.826Z,101381.08
2023-04-09T13:24:55.780Z,101379.21
2023-04-09T13:29:58.697Z,101375.95
2023-04-09T13:35:01.847Z,101372.02
2023-04-09T13:40:06.041Z,101372.38
2023-04-09T13:45:09.372Z,101369.30
2023-04-09T13:50:13.810Z,101366.98
2023-04-09T13:55:16.754Z,101374.03
2023-04-09T14:00:20.733Z,101366.59
2023-04-09T14:05:23.621Z,101376.30
2023-04-09T14:10:27.672Z,101367.58
2023-04-09T14:15:30.526Z,101369.46
2023-04-09T14:20:35.610Z,101361.00
2023-04-09T14:25:38.634Z,101356.14
2023-04-09T14:30:41.511Z,101354.97
2023-04-09T14:35:44.447Z,101355.65
2023-04-09T14:40:47.526Z,101354.07
2023-04-09T14:45:50.663Z,101353.52
2023-04-09T14:50:53.549Z,101350.77
2023-04-09T14:55:56.408Z,101345.69
2023-04-09T15:00:59.256Z,101342.98
2023-04-09T15:06:02.190Z,101338.77
2023-04-09T15:11:05.335Z,101337.24
2023-04-09T15:16:08.535Z,101337.86
2023-04-09T15:21:11.478Z,101344.85
2023-04-09T15:26:14.341Z,101341.88
2023-04-09T15:31:17.466Z,101338.39
2023-04-09T15:36:20.438Z,101331.41
2023-04-09T15:41:24.156Z,101330.67
2023-04-09T15:46:27.130Z,101333.02
2023-04-09T15:51:30.098Z,101330.41
2023-04-09T15:56:33.119Z,101330.96
2023-04-09T16:01:36.374Z,101332.16
2023-04-09T16:06:39.639Z,101330.54
2023-04-09T16:11:42.556Z,101335.41
2023-04-09T16:16:49.985Z,101338.04
2023-04-09T16:21:53.250Z,101347.08
2023-04-09T16:26:57.033Z,101350.52
2023-04-09T16:31:59.968Z,101350.84
2023-04-09T16:37:03.017Z,101352.35
2023-04-09T16:42:05.989Z,101351.90
2023-04-09T16:47:09.207Z,101352.11
2023-04-09T16:52:12.103Z,101350.17
2023-04-09T16:57:15.611Z,101354.98
2023-04-09T17:02:21.727Z,101353.05
2023-04-09T17:07:24.834Z,101363.75
2023-04-09T17:12:27.854Z,101363.22
2023-04-09T17:17:31.525Z,101365.69
2023-04-09T17:22:35.318Z,101362.09
2023-04-09T17:27:38.485Z,101366.77
2023-04-09T17:32:43.758Z,101370.95
2023-04-09T17:37:46.903Z,101380.20
2023-04-09T17:42:50.033Z,101386.33
2023-04-09T17:47:53.226Z,101390.13
2023-04-09T17:52:56.767Z,101395.98
2023-04-09T17:57:59.646Z,101408.70
2023-04-09T18:03:03.092Z,101406.16
2023-04-09T18:08:07.370Z,101411.70
2023-04-09T18:13:10.700Z,101416.92
2023-04-09T18:18:13.619Z,101426.67
2023-04-09T18:23:16.869Z,101431.98
2023-04-09T18:28:19.760Z,101437.35
2023-04-09T18:33:22.961Z,101441.77
2023-04-09T18:38:28.699Z,101447.10
2023-04-09T18:43:32.008Z,101449.15
2023-04-09T18:48:35.197Z,101452.63
2023-04-09T18:53:38.132Z,101450.93
2023-04-09T18:58:42.210Z,101451.04
2023-04-09T19:03:46.596Z,101453.86
2023-04-09T19:08:50.406Z,101452.94
2023-04-09T19:13:53.885Z,101449.73
2023-04-09T19:18:56.823Z,101447.81
2023-04-09T19:24:00.432Z,101446.03
2023-04-09T19:29:05.379Z,101451.52
2023-04-09T19:34:10.770Z,101452.27
2023-04-09T19:39:13.842Z,101453.39
2023-04-09T19:44:16.786Z,101451.92
2023-04-09T19:49:20.537Z,101451.70
2023-04-09T19:54:23.681Z,101449.17
2023-04-09T19:59:26.573Z,101448.77
2023-04-09T20:04:31.055Z,101449.55
2023-04-09T20:09:35.794Z,101447.54
2023-04-09T20:14:39.461Z,101449.49
2023-04-09T20:19:42.623Z,101448.71
2023-04-09T20:24:45.708Z,101443.59
2023-04-09T20:29:49.543Z,101447.91
2023-04-09T20:34:52.440Z,101446.43
2023-04-09T20:39:55.751Z,101452.20
2023-04-09T20:45:01.372Z,101451.05
2023-04-09T20:50:05.929Z,101448.34
2023-04-09T20:55:09.358Z,101447.91
2023-04-09T21:00:13.128Z,101444.67
2023-04-09T21:05:23.288Z,101439.36
2023-04-09T21:10:27.283Z,101434.25
2023-04-09T21:15:30.480Z,101435.22
2023-04-09T21:20:33.300Z,101433.23
2023-04-09T21:25:36.382Z,101433.82
2023-04-09T21:30:39.372Z,101433.70
2023-04-09T21:35:42.218Z,101434.07
2023-04-09T21:40:48.223Z,101435.10
2023-04-09T21:45:51.208Z,101437.37
2023-04-09T21:50:54.135Z,101436.98
2023-04-09T21:55:57.081Z,101434.88
2023-04-09T22:00:59.951Z,101435.16
2023-04-09T22:06:03.111Z,101440.15
2023-04-09T22:11:05.966Z,101434.66
2023-04-09T22:16:09.185Z,101437.98
2023-04-09T22:21:16.592Z,101439.28
2023-04-09T22:26:19.842Z,101442.03
2023-04-09T22:31:22.955Z,101442.36
2023-04-09T22:36:27.322Z,101447.64
2023-04-09T22:41:30.210Z,101450.38
2023-04-09T22:46:34.889Z,101451.65
2023-04-09T22:51:40.179Z,101455.30
2023-04-09T22:56:45.367Z,101456.60
2023-04-09T23:01:48.692Z,101455.30
2023-04-09T23:06:51.669Z,101449.64
2023-04-09T23:11:54.593Z,101453.96
2023-04-09T23:16:57.997Z,101454.60
2023-04-09T23:22:01.004Z,101452.55
2023-04-09T23:27:03.966Z,101448.61
2023-04-09T23:32:07.078Z,101448.63
2023-04-09T23:37:10.280Z,101443.55
2023-04-09T23:42:13.090Z,101441.49
2023-04-09T23:47:16.512Z,101435.10
2023-04-09T23:52:19.561Z,101431.02
2023-04-09T23:57:22.558Z,101427.14
